Time;durP1;ratioP1;P1;durP2;ratioP2;P2;SDS_P1;SDS_P2;PMS_P1;PMS_P2;Temp;Humidity;BMP_temperature;BMP_pressure;BME280_temperature;BME280_humidity;BME280_pressure;Samples;Min_cycle;Max_cycle;Signal;HPM_P1;HPM_P2
2023/10/05 00:00:37;;;;;;;6.73;2.63;;;12.60;99.90;;;;;;5003932;28;20229;-82
2023/10/05 00:03:06;;;;;;;10.80;3.10;;;12.60;99.90;;;;;;5006468;28;20786;-81
2023/10/05 00:05:37;;;;;;;8.17;2.50;;;12.60;99.90;;;;;;5000682;28;20230;-82
2023/10/05 00:08:04;;;;;;;8.60;2.87;;;12.60;99.90;;;;;;5010150;28;20218;-84
2023/10/05 00:10:33;;;;;;;9.20;3.20;;;12.60;99.90;;;;;;5003946;28;20217;-83
2023/10/05 00:13:05;;;;;;;11.30;3.23;;;12.70;99.90;;;;;;5005065;28;20303;-83
2023/10/05 00:15:36;;;;;;;8.40;2.80;;;12.70;99.90;;;;;;5007576;28;20247;-83
2023/10/05 00:18:06;;;;;;;12.73;3.17;;;12.70;99.90;;;;;;5019151;28;20237;-83
2023/10/05 00:20:38;;;;;;;8.10;2.97;;;12.70;99.90;;;;;;4996617;28;20577;-83
2023/10/05 00:23:08;;;;;;;8.00;2.70;;;12.80;99.90;;;;;;5012921;28;20713;-83
2023/10/05 00:25:37;;;;;;;6.33;2.77;;;12.80;99.90;;;;;;5000325;28;20234;-81
2023/10/05 00:28:07;;;;;;;9.63;2.70;;;12.80;99.90;;;;;;5001126;28;20243;-82
2023/10/05 00:30:37;;;;;;;6.83;2.80;;;12.80;99.90;;;;;;5006557;28;20242;-83
2023/10/05 00:33:04;;;;;;;6.83;2.53;;;12.90;99.90;;;;;;5005278;28;20292;-82
2023/10/05 00:35:37;;;;;;;8.60;2.93;;;12.90;99.90;;;;;;4997651;28;20244;-81
2023/10/05 00:38:12;;;;;;;10.53;3.17;;;12.90;99.90;;;;;;5002409;28;20957;-81
2023/10/05 00:40:43;;;;;;;10.30;3.10;;;12.90;99.90;;;;;;4994111;28;20781;-82
2023/10/05 00:43:23;;;;;;;7.83;2.57;;;12.90;99.90;;;;;;5002566;28;20319;-82
2023/10/05 00:45:50;;;;;;;5.80;2.50;;;12.90;99.90;;;;;;5015449;28;20261;-83
2023/10/05 00:48:29;;;;;;;8.10;2.90;;;12.90;99.90;;;;;;5000187;28;20341;-83
2023/10/05 00:51:01;;;;;;;5.83;2.40;;;12.90;99.90;;;;;;5005189;28;20310;-82
2023/10/05 00:53:29;;;;;;;8.90;2.70;;;12.90;99.90;;;;;;5001941;28;20526;-82
2023/10/05 00:56:08;;;;;;;9.77;2.90;;;13.00;99.90;;;;;;5005226;28;20283;-82
2023/10/05 00:58:44;;;;;;;6.37;2.90;;;13.00;99.90;;;;;;5027210;28;20229;-83
2023/10/05 01:01:22;;;;;;;6.33;2.67;;;13.00;99.90;;;;;;5013194;28;20285;-81
2023/10/05 01:04:23;;;;;;;7.63;2.60;;;13.00;99.90;;;;;;5019973;28;20500;-81
2023/10/05 01:06:55;;;;;;;7.50;2.67;;;13.00;99.90;;;;;;5002235;28;20222;-82
2023/10/05 01:09:39;;;;;;;7.07;2.70;;;13.00;99.90;;;;;;5004545;28;20225;-82
2023/10/05 01:12:19;;;;;;;6.83;3.03;;;13.00;99.90;;;;;;5001164;28;20287;-82
2023/10/05 01:14:51;;;;;;;8.13;2.80;;;13.00;99.90;;;;;;5002870;28;20231;-82
2023/10/05 01:17:20;;;;;;;8.43;3.00;;;13.00;99.90;;;;;;5013654;28;20894;-82
2023/10/05 01:19:49;;;;;;;12.00;3.00;;;12.90;99.90;;;;;;4999976;28;20723;-82
2023/10/05 01:22:21;;;;;;;9.43;3.03;;;13.00;99.90;;;;;;4996748;28;20219;-82
2023/10/05 01:24:49;;;;;;;7.20;2.87;;;13.00;99.90;;;;;;5008282;28;20232;-82
2023/10/05 01:27:16;;;;;;;6.63;2.80;;;13.00;99.90;;;;;;4997526;28;20215;-82
2023/10/05 01:29:43;;;;;;;6.87;2.80;;;13.00;99.90;;;;;;5005047;28;20298;-82
2023/10/05 01:32:11;;;;;;;6.80;2.53;;;13.00;99.90;;;;;;4998680;28;20282;-82
2023/10/05 01:34:39;;;;;;;6.47;2.57;;;13.00;99.90;;;;;;5005638;28;20217;-84
2023/10/05 01:37:06;;;;;;;9.17;3.30;;;13.00;99.90;;;;;;5001296;28;20563;-83
2023/10/05 01:39:35;;;;;;;10.10;2.87;;;13.00;99.90;;;;;;4998859;28;20633;-83
2023/10/05 01:42:05;;;;;;;7.63;3.07;;;13.00;99.90;;;;;;5007069;28;20258;-84
2023/10/05 01:44:36;;;;;;;9.37;2.50;;;13.00;99.90;;;;;;5019191;28;20222;-83
2023/10/05 01:47:03;;;;;;;9.77;2.90;;;13.00;99.90;;;;;;5013435;28;20605;-83
2023/10/05 01:49:31;;;;;;;7.37;2.60;;;13.00;99.90;;;;;;5003025;28;20240;-84
2023/10/05 01:51:59;;;;;;;8.93;2.40;;;13.00;99.90;;;;;;5015308;28;20533;-83
2023/10/05 01:54:28;;;;;;;7.83;2.63;;;13.00;99.90;;;;;;5002838;28;20238;-82
2023/10/05 01:56:55;;;;;;;6.90;2.27;;;13.00;99.90;;;;;;4995199;28;20219;-83
2023/10/05 01:59:27;;;;;;;8.20;3.07;;;13.00;99.90;;;;;;5002561;28;20238;-82
2023/10/05 02:01:56;;;;;;;5.73;2.53;;;13.00;99.90;;;;;;4993218;28;21065;-82
2023/10/05 02:04:23;;;;;;;7.20;2.67;;;12.90;99.90;;;;;;5002539;28;20225;-84
2023/10/05 02:06:52;;;;;;;9.13;2.93;;;13.00;99.90;;;;;;5011702;28;20591;-83
2023/10/05 02:09:21;;;;;;;8.83;2.73;;;12.90;99.90;;;;;;5004446;28;20223;-83
2023/10/05 02:11:49;;;;;;;9.87;2.97;;;12.90;99.90;;;;;;5004102;28;20242;-83
2023/10/05 02:14:17;;;;;;;8.37;2.90;;;12.90;99.90;;;;;;5015707;28;20226;-82
2023/10/05 02:16:49;;;;;;;8.63;2.67;;;12.90;99.90;;;;;;5006600;28;20222;-81
2023/10/05 02:19:16;;;;;;;6.23;2.43;;;13.00;99.90;;;;;;4995062;28;20233;-82
2023/10/05 02:21:45;;;;;;;7.17;2.30;;;13.00;99.90;;;;;;5004606;28;20521;-84
2023/10/05 02:24:15;;;;;;;7.30;2.47;;;13.00;99.90;;;;;;5017149;28;20236;-82
2023/10/05 02:26:56;;;;;;;8.97;2.20;;;13.00;99.90;;;;;;5020293;28;20228;-81
2023/10/05 02:29:26;;;;;;;8.67;2.33;;;12.90;99.90;;;;;;5003229;28;20323;-83
2023/10/05 02:32:05;;;;;;;8.80;2.50;;;12.90;99.90;;;;;;5001899;28;20217;-83
2023/10/05 02:34:41;;;;;;;6.23;2.43;;;12.90;99.90;;;;;;4997087;28;20224;-84
2023/10/05 02:37:11;;;;;;;7.30;2.70;;;12.90;99.90;;;;;;5022084;28;20251;-85
2023/10/05 02:39:38;;;;;;;9.20;2.90;;;12.90;99.90;;;;;;4996887;28;20225;-84
2023/10/05 02:42:06;;;;;;;5.57;2.50;;;12.90;99.90;;;;;;5006101;28;20281;-82
2023/10/05 02:44:35;;;;;;;10.30;2.47;;;12.80;99.90;;;;;;5015365;28;20572;-83
2023/10/05 02:47:08;;;;;;;7.70;2.63;;;12.80;99.90;;;;;;5003209;28;20287;-83
2023/10/05 02:49:40;;;;;;;5.27;2.50;;;12.80;99.90;;;;;;4993269;28;20259;-82
2023/10/05 02:52:09;;;;;;;6.17;2.20;;;12.80;99.90;;;;;;5018098;28;20232;-83
2023/10/05 02:54:36;;;;;;;5.93;2.47;;;12.70;99.90;;;;;;5015519;28;20242;-83
2023/10/05 02:57:07;;;;;;;9.70;2.50;;;12.70;99.90;;;;;;4999646;28;20285;-83
2023/10/05 02:59:34;;;;;;;5.87;2.50;;;12.70;99.90;;;;;;4989347;28;20236;-81
2023/10/05 03:02:06;;;;;;;7.77;2.27;;;12.60;99.90;;;;;;5002797;28;20221;-80
2023/10/05 03:04:48;;;;;;;7.90;2.67;;;12.60;99.90;;;;;;5021065;28;20758;-80
2023/10/05 03:07:25;;;;;;;8.37;2.40;;;12.70;99.90;;;;;;4997007;28;20723;-79
2023/10/05 03:09:52;;;;;;;7.67;2.50;;;12.60;99.90;;;;;;4996674;28;20230;-80
2023/10/05 03:12:21;;;;;;;9.50;2.70;;;12.60;99.90;;;;;;5001709;28;20445;-79
2023/10/05 03:14:51;;;;;;;8.23;2.30;;;12.60;99.90;;;;;;4989629;28;20296;-80
2023/10/05 03:17:20;;;;;;;7.10;2.90;;;12.50;99.90;;;;;;5003226;28;20223;-80
2023/10/05 03:19:50;;;;;;;7.17;2.20;;;12.50;99.90;;;;;;4998729;28;20229;-80
2023/10/05 03:22:17;;;;;;;7.13;2.63;;;12.50;99.90;;;;;;4994124;28;20232;-80
2023/10/05 03:24:45;;;;;;;7.33;2.37;;;12.50;99.90;;;;;;4992909;28;20226;-80
2023/10/05 03:27:14;;;;;;;7.10;2.67;;;12.50;99.90;;;;;;5003744;28;20248;-80
2023/10/05 03:29:45;;;;;;;6.37;2.20;;;12.60;99.90;;;;;;4990130;28;20295;-81
2023/10/05 03:32:14;;;;;;;7.47;2.40;;;12.60;99.90;;;;;;5000599;28;20616;-81
2023/10/05 03:34:46;;;;;;;10.27;2.93;;;12.60;99.90;;;;;;4998940;28;20584;-80
2023/10/05 03:37:15;;;;;;;6.80;2.53;;;12.60;99.90;;;;;;4994589;28;20312;-81
2023/10/05 03:39:51;;;;;;;6.43;2.17;;;12.60;99.90;;;;;;4995610;28;20290;-82
2023/10/05 03:42:21;;;;;;;9.53;2.80;;;12.60;99.90;;;;;;4978010;28;20679;-81
2023/10/05 03:44:54;;;;;;;7.30;2.53;;;12.60;99.90;;;;;;5000108;28;20217;-81
2023/10/05 03:47:20;;;;;;;6.33;2.23;;;12.50;99.90;;;;;;4999168;28;20284;-81
2023/10/05 03:49:55;;;;;;;6.50;2.17;;;12.60;99.90;;;;;;4992406;28;20609;-81
2023/10/05 03:52:29;;;;;;;7.23;2.63;;;12.50;99.90;;;;;;4999658;28;20311;-80
2023/10/05 03:55:01;;;;;;;6.23;2.60;;;12.50;99.90;;;;;;5000819;28;20245;-79
2023/10/05 03:57:31;;;;;;;6.13;2.83;;;12.50;99.90;;;;;;5000669;28;20225;-79
2023/10/05 04:00:16;;;;;;;5.37;2.40;;;12.60;99.90;;;;;;5002707;28;20225;-79
2023/10/05 04:02:43;;;;;;;8.13;2.63;;;12.60;99.90;;;;;;4991659;28;20567;-81
2023/10/05 04:05:11;;;;;;;7.70;2.73;;;12.60;99.90;;;;;;4999712;28;20258;-81
2023/10/05 04:07:39;;;;;;;8.77;2.60;;;12.60;99.90;;;;;;4998358;28;20275;-80
2023/10/05 04:10:12;;;;;;;8.40;2.70;;;12.60;99.90;;;;;;4996308;28;20762;-79
2023/10/05 04:12:40;;;;;;;7.83;2.67;;;12.60;99.90;;;;;;4992771;28;20481;-77
2023/10/05 04:15:11;;;;;;;8.37;2.87;;;12.70;99.90;;;;;;4997054;28;20311;-80
2023/10/05 04:17:38;;;;;;;8.10;2.70;;;12.70;99.90;;;;;;4995060;28;20817;-79
2023/10/05 04:20:07;;;;;;;8.33;3.00;;;12.70;99.90;;;;;;5004191;28;20713;-80
2023/10/05 04:22:35;;;;;;;9.20;3.03;;;12.70;99.90;;;;;;4995143;28;20221;-79
2023/10/05 04:25:04;;;;;;;11.30;2.50;;;12.70;99.90;;;;;;5014262;28;20229;-81
2023/10/05 04:27:31;;;;;;;10.67;2.80;;;12.70;99.90;;;;;;4995276;28;20673;-80
2023/10/05 04:29:59;;;;;;;8.73;2.83;;;12.70;99.90;;;;;;4999722;28;20221;-80
2023/10/05 04:32:26;;;;;;;10.63;3.20;;;12.70;99.90;;;;;;4999459;28;20231;-78
2023/10/05 04:34:53;;;;;;;10.70;2.83;;;12.70;99.90;;;;;;5010317;28;20340;-79
2023/10/05 04:37:20;;;;;;;9.17;2.90;;;12.80;99.90;;;;;;4992119;28;20223;-78
2023/10/05 04:39:47;;;;;;;6.83;2.40;;;12.80;99.90;;;;;;4995623;28;20229;-79
2023/10/05 04:42:16;;;;;;;8.47;2.70;;;12.80;99.90;;;;;;4995486;28;20229;-80
2023/10/05 04:44:45;;;;;;;8.67;2.63;;;12.80;99.90;;;;;;4995075;28;21116;-80
2023/10/05 04:47:13;;;;;;;9.40;2.70;;;12.80;99.90;;;;;;4996619;28;20222;-79
2023/10/05 04:49:40;;;;;;;7.40;2.70;;;12.80;99.90;;;;;;5008964;28;20298;-79
2023/10/05 04:52:07;;;;;;;10.07;3.17;;;12.80;99.90;;;;;;4992733;28;20733;-79
2023/10/05 04:54:38;;;;;;;6.60;2.50;;;12.90;99.90;;;;;;5001675;28;20283;-79
2023/10/05 04:57:12;;;;;;;7.37;2.70;;;12.90;99.90;;;;;;4995773;28;20805;-79
2023/10/05 04:59:59;;;;;;;9.33;2.87;;;12.90;99.90;;;;;;4997406;28;20229;-78
2023/10/05 05:02:47;;;;;;;6.87;2.73;;;12.90;99.90;;;;;;4997337;28;20235;-79
2023/10/05 05:05:40;;;;;;;7.77;3.20;;;12.90;99.90;;;;;;4993700;28;20230;-79
2023/10/05 05:08:08;;;;;;;10.33;2.87;;;12.90;99.90;;;;;;5013090;28;20225;-79
2023/10/05 05:10:36;;;;;;;9.47;2.90;;;12.90;99.90;;;;;;4998719;28;20253;-78
2023/10/05 05:13:03;;;;;;;12.30;3.00;;;12.80;99.90;;;;;;5013367;28;20254;-79
2023/10/05 05:15:35;;;;;;;8.77;2.80;;;12.80;99.90;;;;;;4995054;28;20236;-79
2023/10/05 05:18:02;;;;;;;5.50;2.27;;;12.80;99.90;;;;;;4995744;28;20495;-80
2023/10/05 05:20:28;;;;;;;9.20;3.13;;;12.80;99.90;;;;;;4998220;28;20235;-80
2023/10/05 05:22:55;;;;;;;9.70;2.80;;;12.80;99.90;;;;;;4999995;28;20222;-80
2023/10/05 05:25:24;;;;;;;11.13;3.20;;;12.70;99.90;;;;;;4999781;28;20245;-81
2023/10/05 05:27:55;;;;;;;10.07;3.07;;;12.70;99.90;;;;;;5005578;28;20236;-80
2023/10/05 05:30:25;;;;;;;7.80;2.93;;;12.70;99.90;;;;;;5006720;28;20538;-81
2023/10/05 05:32:54;;;;;;;11.80;3.50;;;12.70;99.90;;;;;;4999712;28;20232;-81
2023/10/05 05:35:21;;;;;;;8.47;2.93;;;12.60;99.90;;;;;;5014986;28;20283;-81
2023/10/05 05:37:51;;;;;;;8.37;3.37;;;12.60;99.90;;;;;;5011311;28;20244;-81
2023/10/05 05:40:18;;;;;;;10.27;3.10;;;12.60;99.90;;;;;;4998532;28;20248;-81
2023/10/05 05:42:45;;;;;;;11.13;3.57;;;12.60;99.90;;;;;;5015829;28;20566;-80
2023/10/05 05:45:16;;;;;;;11.80;3.40;;;12.50;99.90;;;;;;5006049;28;20214;-80
2023/10/05 05:47:43;;;;;;;17.27;3.67;;;12.50;99.90;;;;;;4997061;28;20216;-80
2023/10/05 05:50:17;;;;;;;11.93;3.40;;;12.50;99.90;;;;;;4994012;28;20218;-80
2023/10/05 05:52:46;;;;;;;11.87;3.00;;;12.50;99.90;;;;;;4999280;28;20236;-81
2023/10/05 05:55:20;;;;;;;11.27;3.30;;;12.50;99.90;;;;;;5012090;28;20285;-79
2023/10/05 05:57:47;;;;;;;8.90;3.00;;;12.50;99.90;;;;;;5001778;28;20572;-81
2023/10/05 06:00:17;;;;;;;10.80;3.43;;;12.50;99.90;;;;;;5012602;28;20241;-79
2023/10/05 06:02:46;;;;;;;7.73;2.90;;;12.50;99.90;;;;;;5008013;28;20258;-81
2023/10/05 06:05:16;;;;;;;10.07;3.30;;;12.50;99.90;;;;;;4993564;28;20239;-81
2023/10/05 06:07:44;;;;;;;9.83;3.20;;;12.50;99.90;;;;;;5000281;28;20228;-84
2023/10/05 06:10:12;;;;;;;11.90;3.37;;;12.50;99.90;;;;;;5013515;28;20655;-81
2023/10/05 06:12:40;;;;;;;14.13;3.37;;;12.60;99.90;;;;;;5007950;28;20226;-83
2023/10/05 06:15:08;;;;;;;7.57;3.33;;;12.60;99.90;;;;;;5004232;28;20309;-84
2023/10/05 06:17:35;;;;;;;12.13;3.83;;;12.50;99.90;;;;;;5027780;28;20944;-79
2023/10/05 06:20:05;;;;;;;12.13;3.23;;;12.50;99.90;;;;;;5005164;28;20271;-80
2023/10/05 06:22:33;;;;;;;13.43;3.20;;;12.60;99.90;;;;;;5007889;28;20489;-81
2023/10/05 06:25:00;;;;;;;11.77;3.30;;;12.50;99.90;;;;;;5002113;28;20312;-79
2023/10/05 06:27:26;;;;;;;11.00;3.70;;;12.60;99.90;;;;;;4997956;28;20239;-79
2023/10/05 06:29:56;;;;;;;8.17;3.33;;;12.50;99.90;;;;;;5001875;28;20703;-79
2023/10/05 06:32:22;;;;;;;12.67;3.53;;;12.50;99.90;;;;;;5015475;28;20229;-79
2023/10/05 06:34:49;;;;;;;8.80;3.30;;;12.50;99.90;;;;;;5000645;28;20300;-78
2023/10/05 06:37:17;;;;;;;37.10;4.87;;;12.50;99.90;;;;;;5006364;28;20246;-80
2023/10/05 06:39:47;;;;;;;13.57;3.60;;;12.50;99.90;;;;;;4997188;28;20818;-82
2023/10/05 06:42:17;;;;;;;10.83;3.50;;;12.50;99.90;;;;;;5002490;28;20474;-81
2023/10/05 06:44:44;;;;;;;14.30;3.80;;;12.50;99.90;;;;;;5014794;28;20655;-79
2023/10/05 06:47:18;;;;;;;11.97;3.53;;;12.50;99.90;;;;;;5003108;28;20656;-79
2023/10/05 06:49:45;;;;;;;10.37;4.20;;;12.50;99.90;;;;;;5000798;28;20237;-77
2023/10/05 06:52:12;;;;;;;14.87;4.87;;;12.50;99.90;;;;;;5016565;28;20223;-78
2023/10/05 06:54:39;;;;;;;9.27;3.90;;;12.50;99.90;;;;;;5019467;28;20223;-77
2023/10/05 06:57:06;;;;;;;12.30;4.07;;;12.50;99.90;;;;;;5019211;28;20219;-79
2023/10/05 06:59:36;;;;;;;13.67;3.60;;;12.50;99.90;;;;;;4997134;28;20240;-76
2023/10/05 07:02:03;;;;;;;9.23;3.40;;;12.50;99.90;;;;;;5001711;28;20221;-78
2023/10/05 07:04:30;;;;;;;11.33;3.70;;;12.50;99.90;;;;;;5006155;28;20729;-79
2023/10/05 07:06:56;;;;;;;9.70;3.37;;;12.50;99.90;;;;;;5006715;28;20237;-80
2023/10/05 07:09:26;;;;;;;11.30;3.37;;;12.50;99.90;;;;;;5003354;28;20236;-77
2023/10/05 07:11:53;;;;;;;7.63;3.17;;;12.50;99.90;;;;;;5019892;28;20231;-79
2023/10/05 07:14:21;;;;;;;8.27;3.63;;;12.50;99.90;;;;;;5014805;28;20316;-77
2023/10/05 07:16:48;;;;;;;7.37;3.23;;;12.50;99.90;;;;;;4999290;28;20222;-78
2023/10/05 07:19:16;;;;;;;8.90;3.60;;;12.50;99.90;;;;;;4999863;28;20782;-79
2023/10/05 07:21:42;;;;;;;9.63;3.23;;;12.50;99.90;;;;;;5012168;28;20789;-78
2023/10/05 07:24:09;;;;;;;6.37;2.67;;;12.50;99.90;;;;;;5022536;28;20225;-78
2023/10/05 07:26:37;;;;;;;5.87;2.70;;;12.50;99.90;;;;;;4999375;28;20791;-78
2023/10/05 07:29:04;;;;;;;6.90;2.67;;;12.50;99.90;;;;;;4995806;28;20225;-79
2023/10/05 07:31:32;;;;;;;7.87;2.70;;;12.60;99.90;;;;;;5004335;28;20229;-76
2023/10/05 07:33:59;;;;;;;4.73;2.40;;;12.60;99.90;;;;;;5001962;28;20220;-79
2023/10/05 07:36:26;;;;;;;4.70;2.20;;;12.60;99.90;;;;;;5004459;28;20277;-79
2023/10/05 07:38:53;;;;;;;5.47;2.67;;;12.60;99.90;;;;;;4998577;28;20873;-79
2023/10/05 07:41:19;;;;;;;6.43;2.37;;;12.60;99.90;;;;;;5000568;28;20295;-79
2023/10/05 07:43:46;;;;;;;4.67;2.20;;;12.60;99.90;;;;;;5002955;28;20228;-82
2023/10/05 07:46:13;;;;;;;4.93;2.27;;;12.60;99.90;;;;;;5000820;28;20226;-81
2023/10/05 07:48:41;;;;;;;5.47;1.93;;;12.60;99.90;;;;;;5012119;28;20320;-81
2023/10/05 07:51:07;;;;;;;3.83;2.00;;;12.60;99.90;;;;;;4996210;28;20249;-81
2023/10/05 07:53:34;;;;;;;3.77;1.67;;;12.70;99.90;;;;;;4995743;28;20222;-81
2023/10/05 07:56:01;;;;;;;2.83;1.70;;;12.60;99.90;;;;;;5005610;28;20318;-81
2023/10/05 07:58:28;;;;;;;2.57;1.50;;;12.70;99.90;;;;;;4995216;28;20240;-82
2023/10/05 08:00:55;;;;;;;5.70;3.63;;;12.60;99.90;;;;;;5002809;28;20222;-81
2023/10/05 08:03:23;;;;;;;3.57;1.83;;;12.60;99.90;;;;;;4998574;28;20233;-81
2023/10/05 08:05:51;;;;;;;5.13;1.93;;;12.60;99.90;;;;;;4999761;28;20459;-79
2023/10/05 08:08:20;;;;;;;2.23;1.50;;;12.70;99.90;;;;;;5016322;28;20222;-80
2023/10/05 08:10:47;;;;;;;4.27;2.23;;;12.70;99.90;;;;;;4999030;28;20455;-80
2023/10/05 08:13:16;;;;;;;3.33;1.40;;;12.70;99.90;;;;;;5001445;28;20235;-80
2023/10/05 08:15:44;;;;;;;2.73;1.83;;;12.80;99.90;;;;;;4995907;28;20232;-79
2023/10/05 08:18:11;;;;;;;1.67;1.20;;;12.80;99.90;;;;;;4999220;28;20287;-80
2023/10/05 08:20:37;;;;;;;2.17;1.13;;;12.90;99.90;;;;;;5003250;28;20707;-80
2023/10/05 08:23:06;;;;;;;2.77;1.20;;;13.00;99.90;;;;;;4997019;28;20230;-80
2023/10/05 08:25:32;;;;;;;2.47;1.00;;;13.00;99.90;;;;;;4996630;28;20413;-80
2023/10/05 08:27:59;;;;;;;2.50;0.90;;;13.10;99.90;;;;;;5009360;28;20233;-79
2023/10/05 08:30:32;;;;;;;3.17;1.17;;;13.10;99.90;;;;;;5001672;28;20235;-80
2023/10/05 08:32:59;;;;;;;2.37;1.13;;;13.20;99.90;;;;;;5005827;28;20762;-79
2023/10/05 08:35:40;;;;;;;2.43;1.07;;;13.20;99.90;;;;;;5005072;28;21172;-80
2023/10/05 08:38:10;;;;;;;2.37;1.13;;;13.20;99.90;;;;;;5003106;28;20445;-80
2023/10/05 08:40:42;;;;;;;1.43;1.00;;;13.30;99.90;;;;;;5001851;28;20549;-77
2023/10/05 08:43:10;;;;;;;2.80;1.20;;;13.30;99.90;;;;;;5005970;28;20271;-80
2023/10/05 08:45:51;;;;;;;0.80;0.70;;;13.30;99.90;;;;;;5004714;28;20269;-80
2023/10/05 08:48:22;;;;;;;1.10;0.70;;;13.40;99.90;;;;;;5001717;28;20724;-79
2023/10/05 08:50:54;;;;;;;1.47;0.90;;;13.40;99.90;;;;;;5014752;28;20222;-79
2023/10/05 08:53:22;;;;;;;1.97;1.00;;;13.40;99.90;;;;;;5000110;28;20225;-79
2023/10/05 08:55:54;;;;;;;1.90;1.00;;;13.50;99.90;;;;;;5005855;28;20235;-79
2023/10/05 08:58:22;;;;;;;2.40;1.03;;;13.60;99.90;;;;;;5004218;28;20231;-79
2023/10/05 09:00:52;;;;;;;2.30;0.90;;;13.60;99.90;;;;;;4999799;28;20716;-81
2023/10/05 09:03:35;;;;;;;1.90;1.33;;;13.70;99.90;;;;;;4998136;28;20230;-79
2023/10/05 09:06:16;;;;;;;3.87;1.00;;;13.70;99.90;;;;;;5000205;28;20223;-79
2023/10/05 09:08:57;;;;;;;1.67;1.00;;;13.80;99.90;;;;;;4997219;28;20233;-80
2023/10/05 09:11:31;;;;;;;2.10;1.10;;;13.90;99.90;;;;;;4997322;28;20237;-82
2023/10/05 09:14:12;;;;;;;2.47;1.20;;;14.10;99.90;;;;;;5003289;28;20227;-81
2023/10/05 09:16:42;;;;;;;2.83;1.23;;;14.20;99.90;;;;;;5000462;28;20227;-80
2023/10/05 09:19:12;;;;;;;5.47;1.80;;;14.30;99.90;;;;;;5002039;28;20225;-80
2023/10/05 09:21:50;;;;;;;1.90;1.10;;;14.40;99.90;;;;;;4997231;28;20231;-80
2023/10/05 09:24:22;;;;;;;1.47;0.93;;;14.40;99.90;;;;;;5009128;28;20242;-80
2023/10/05 09:26:54;;;;;;;3.67;1.30;;;14.50;99.90;;;;;;5002491;28;20601;-81
2023/10/05 09:29:22;;;;;;;5.27;1.17;;;14.50;99.90;;;;;;4998207;28;20225;-80
2023/10/05 09:31:52;;;;;;;3.93;1.10;;;14.50;99.90;;;;;;4999138;28;20230;-80
2023/10/05 09:34:20;;;;;;;3.03;1.20;;;14.60;99.90;;;;;;4996845;28;20222;-80
2023/10/05 09:36:47;;;;;;;3.80;1.30;;;14.60;99.90;;;;;;4999033;28;20240;-80
2023/10/05 09:39:16;;;;;;;4.37;1.40;;;14.70;99.90;;;;;;4990546;28;20244;-79
2023/10/05 09:41:56;;;;;;;2.40;1.10;;;14.90;99.90;;;;;;5000341;28;20222;-81
2023/10/05 09:44:28;;;;;;;3.93;1.23;;;15.10;99.90;;;;;;4998738;28;20224;-81
2023/10/05 09:46:57;;;;;;;4.10;1.10;;;15.40;99.90;;;;;;5004618;28;20229;-81
2023/10/05 09:49:24;;;;;;;3.87;0.90;;;15.60;99.90;;;;;;5003966;28;20240;-81
2023/10/05 09:51:51;;;;;;;2.33;1.30;;;15.80;99.90;;;;;;5003484;28;20225;-82
2023/10/05 09:54:22;;;;;;;5.47;1.17;;;16.00;99.90;;;;;;5001867;28;20529;-81
2023/10/05 09:56:51;;;;;;;5.13;1.40;;;16.20;99.90;;;;;;5005668;28;20217;-81
2023/10/05 09:59:19;;;;;;;2.80;1.17;;;16.40;99.90;;;;;;5000542;28;20225;-82
2023/10/05 10:01:48;;;;;;;3.23;1.17;;;16.60;99.90;;;;;;5013872;28;20249;-81
2023/10/05 10:04:34;;;;;;;3.27;1.63;;;16.80;99.90;;;;;;5002253;28;20500;-82
2023/10/05 10:07:15;;;;;;;2.70;1.00;;;17.00;99.90;;;;;;5015729;28;20767;-81
2023/10/05 10:09:46;;;;;;;5.27;1.30;;;17.20;99.90;;;;;;5002197;28;20268;-81
2023/10/05 10:12:26;;;;;;;5.47;1.60;;;17.50;99.90;;;;;;4997499;28;20232;-80
2023/10/05 10:14:58;;;;;;;3.38;1.23;;;17.70;99.90;;;;;;4997492;28;20221;-80
2023/10/05 10:17:31;;;;;;;3.92;1.70;;;18.00;99.90;;;;;;4996182;28;20488;-78
2023/10/05 10:20:07;;;;;;;7.78;1.80;;;18.30;99.90;;;;;;5010540;28;20317;-77
2023/10/05 10:22:50;;;;;;;6.88;1.83;;;18.50;99.90;;;;;;4998958;28;20257;-78
2023/10/05 10:25:38;;;;;;;6.28;1.30;;;18.70;99.90;;;;;;4990970;28;20313;-79
2023/10/05 10:28:18;;;;;;;4.95;1.30;;;18.80;99.90;;;;;;5006773;28;20603;-79
2023/10/05 10:30:47;;;;;;;7.63;1.42;;;18.80;99.90;;;;;;4994894;28;20224;-80
2023/10/05 10:33:30;;;;;;;3.45;1.63;;;18.80;99.90;;;;;;4992940;28;20225;-79
2023/10/05 10:35:58;;;;;;;9.77;1.92;;;18.80;99.90;;;;;;4992387;28;20599;-79
2023/10/05 10:38:26;;;;;;;4.72;1.30;;;18.80;99.90;;;;;;4996540;28;20279;-79
2023/10/05 10:41:09;;;;;;;5.35;1.65;;;18.90;99.90;;;;;;4997253;28;20332;-79
2023/10/05 10:43:37;;;;;;;6.32;1.40;;;19.00;99.90;;;;;;4996797;28;20225;-79
2023/10/05 10:46:13;;;;;;;7.05;1.48;;;19.00;99.90;;;;;;4992190;28;20589;-79
2023/10/05 10:48:54;;;;;;;6.15;1.50;;;19.00;99.90;;;;;;5004713;28;20224;-79
2023/10/05 10:51:22;;;;;;;7.18;1.50;;;18.90;99.90;;;;;;4988028;28;20221;-78
2023/10/05 10:53:56;;;;;;;6.50;1.70;;;18.90;99.90;;;;;;4996521;28;20224;-79
2023/10/05 10:56:28;;;;;;;5.78;2.00;;;19.00;99.90;;;;;;4989943;28;20214;-79
2023/10/05 10:59:09;;;;;;;4.18;1.52;;;19.00;99.90;;;;;;4996887;28;20261;-79
2023/10/05 11:01:44;;;;;;;7.95;1.70;;;19.00;99.90;;;;;;4998805;28;20692;-80
2023/10/05 11:04:26;;;;;;;5.70;1.60;;;19.00;99.90;;;;;;4996822;28;20216;-79
2023/10/05 11:06:59;;;;;;;5.03;1.70;;;18.90;99.90;;;;;;4994174;28;20209;-79
2023/10/05 11:09:31;;;;;;;4.32;1.65;;;18.90;99.90;;;;;;5000412;28;20711;-81
2023/10/05 11:12:08;;;;;;;6.25;1.80;;;18.80;99.90;;;;;;4994266;28;20787;-80
2023/10/05 11:14:38;;;;;;;4.10;1.43;;;18.70;99.90;;;;;;4995026;28;20688;-80
2023/10/05 11:17:11;;;;;;;5.55;1.90;;;18.60;99.90;;;;;;4994268;28;20225;-80
2023/10/05 11:19:40;;;;;;;6.07;1.52;;;18.60;99.90;;;;;;5007603;28;20230;-79
2023/10/05 11:22:11;;;;;;;7.68;1.75;;;18.60;99.90;;;;;;4996237;28;20225;-81
2023/10/05 11:25:14;;;;;;;6.60;1.80;;;18.70;99.90;;;;;;4997875;28;20221;-79
2023/10/05 11:27:44;;;;;;;6.85;1.70;;;18.80;99.90;;;;;;5014242;28;20225;-79
2023/10/05 11:30:18;;;;;;;5.97;1.75;;;19.00;99.90;;;;;;4991312;28;20306;-78
2023/10/05 11:32:46;;;;;;;5.50;1.75;;;19.10;99.90;;;;;;4984467;28;20257;-78
2023/10/05 11:35:15;;;;;;;7.82;2.35;;;19.20;99.90;;;;;;4986393;28;20327;-77
2023/10/05 11:37:44;;;;;;;9.05;2.22;;;19.30;99.90;;;;;;4995504;28;20221;-78
2023/10/05 11:40:19;;;;;;;8.38;2.15;;;19.50;99.90;;;;;;4991056;28;20218;-78
2023/10/05 11:42:48;;;;;;;5.22;1.65;;;19.60;99.90;;;;;;4991050;28;20583;-78
2023/10/05 11:45:18;;;;;;;6.43;1.88;;;19.70;99.90;;;;;;4999366;28;20252;-77
2023/10/05 11:47:51;;;;;;;5.65;1.75;;;19.80;99.90;;;;;;4998223;28;20228;-77
2023/10/05 11:50:24;;;;;;;8.27;1.95;;;19.80;99.90;;;;;;4994124;28;20561;-78
2023/10/05 11:52:52;;;;;;;6.05;1.92;;;20.00;99.90;;;;;;5000833;28;20271;-77
2023/10/05 11:55:19;;;;;;;10.32;2.17;;;20.10;99.90;;;;;;4996026;28;20234;-78
2023/10/05 11:57:45;;;;;;;5.95;1.83;;;20.20;99.90;;;;;;5003848;28;20229;-77
2023/10/05 12:00:15;;;;;;;6.45;1.92;;;20.30;99.90;;;;;;5005746;28;20275;-78
2023/10/05 12:02:44;;;;;;;4.78;1.58;;;20.20;99.90;;;;;;4995271;28;20603;-78
2023/10/05 12:05:11;;;;;;;12.23;2.28;;;20.10;99.90;;;;;;5005276;28;20221;-78
2023/10/05 12:07:41;;;;;;;8.32;2.20;;;19.80;99.90;;;;;;4994083;28;20837;-78
2023/10/05 12:10:10;;;;;;;5.45;1.83;;;19.60;99.90;;;;;;5000141;28;20225;-77
2023/10/05 12:12:41;;;;;;;5.97;1.70;;;19.50;99.90;;;;;;5000868;28;20631;-78
2023/10/05 12:15:13;;;;;;;5.90;1.70;;;19.30;99.90;;;;;;5002922;28;20757;-77
2023/10/05 12:17:40;;;;;;;3.97;1.65;;;19.30;99.90;;;;;;4996785;28;20412;-77
2023/10/05 12:20:12;;;;;;;6.35;1.95;;;19.20;99.90;;;;;;5001685;28;20226;-77
2023/10/05 12:22:40;;;;;;;5.65;1.40;;;19.20;99.90;;;;;;5000638;28;20248;-78
2023/10/05 12:25:08;;;;;;;7.03;1.80;;;19.20;99.90;;;;;;5002728;28;20214;-78
2023/10/05 12:27:36;;;;;;;4.00;1.60;;;19.20;99.90;;;;;;5005096;28;20589;-77
2023/10/05 12:30:10;;;;;;;7.85;1.52;;;19.20;99.90;;;;;;5002365;28;20225;-77
2023/10/05 12:32:38;;;;;;;5.40;1.65;;;19.20;99.90;;;;;;5003652;28;20216;-77
2023/10/05 12:35:13;;;;;;;9.23;1.75;;;19.30;99.90;;;;;;5014547;28;20222;-77
2023/10/05 12:37:40;;;;;;;4.57;1.80;;;19.30;99.90;;;;;;5001205;28;20683;-78
2023/10/05 12:40:18;;;;;;;4.00;1.42;;;19.40;99.90;;;;;;5000200;28;20304;-77
2023/10/05 12:42:52;;;;;;;4.20;1.48;;;19.50;99.90;;;;;;5019617;28;20229;-77
2023/10/05 12:45:23;;;;;;;3.63;1.23;;;19.60;99.60;;;;;;5018579;28;20225;-77
2023/10/05 12:47:54;;;;;;;4.70;1.50;;;19.60;99.70;;;;;;4999766;28;20229;-77
2023/10/05 12:50:24;;;;;;;4.63;1.63;;;19.60;99.80;;;;;;4999161;28;20236;-77
2023/10/05 12:52:51;;;;;;;3.70;1.25;;;19.60;98.90;;;;;;5013982;28;20229;-77
2023/10/05 12:55:19;;;;;;;5.43;1.50;;;19.50;99.20;;;;;;5001203;28;20221;-77
2023/10/05 12:57:50;;;;;;;4.18;1.75;;;19.50;99.60;;;;;;4996530;28;20748;-77
2023/10/05 13:00:21;;;;;;;4.30;1.67;;;19.50;99.50;;;;;;5013499;28;20233;-77
2023/10/05 13:02:51;;;;;;;4.85;1.30;;;19.50;99.40;;;;;;5002871;28;20775;-77